createdAt,value
2022-10-12T00:02:09.816Z,4.83
2022-10-12T00:04:36.558Z,4.80
2022-10-12T00:07:03.352Z,4.50
2022-10-12T00:09:30.119Z,4.23
2022-10-12T00:11:58.271Z,5.03
2022-10-12T00:14:24.994Z,4.67
2022-10-12T00:16:51.845Z,5.23
2022-10-12T00:19:18.599Z,4.37
2022-10-12T00:21:45.366Z,4.73
2022-10-12T00:24:12.103Z,3.83
2022-10-12T00:26:38.962Z,4.13
2022-10-12T00:29:05.789Z,4.13
2022-10-12T00:31:32.620Z,5.53
2022-10-12T00:34:01.807Z,4.63
2022-10-12T00:36:32.515Z,5.47
2022-10-12T00:38:59.832Z,5.40
2022-10-12T00:41:31.015Z,5.10
2022-10-12T00:43:58.796Z,4.03
2022-10-12T00:46:28.434Z,4.20
2022-10-12T00:49:10.122Z,4.40
2022-10-12T00:51:38.921Z,4.90
2022-10-12T00:54:11.730Z,4.60
2022-10-12T00:56:42.059Z,4.73
2022-10-12T00:59:14.754Z,5.60
2022-10-12T01:01:41.835Z,5.07
2022-10-12T01:04:08.759Z,4.97
2022-10-12T01:06:36.143Z,4.67
2022-10-12T01:09:04.072Z,5.00
2022-10-12T01:11:31.333Z,5.20
2022-10-12T01:13:58.518Z,5.30
2022-10-12T01:16:46.930Z,4.83
2022-10-12T01:19:56.391Z,5.17
2022-10-12T01:22:25.294Z,5.17
2022-10-12T01:24:54.290Z,4.73
2022-10-12T01:27:40.854Z,5.07
2022-10-12T01:30:24.754Z,5.13
2022-10-12T01:33:25.340Z,4.90
2022-10-12T01:36:03.861Z,5.20
2022-10-12T01:38:40.076Z,5.10
2022-10-12T01:41:26.928Z,5.13
2022-10-12T01:43:53.660Z,4.63
2022-10-12T01:46:20.308Z,4.93
2022-10-12T01:48:49.606Z,5.10
2022-10-12T01:51:29.148Z,5.67
2022-10-12T01:54:10.589Z,4.70
2022-10-12T01:57:03.730Z,5.10
2022-10-12T01:59:45.012Z,5.47
2022-10-12T02:02:34.837Z,4.70
2022-10-12T02:05:26.847Z,4.63
2022-10-12T02:08:06.077Z,4.17
2022-10-12T02:10:43.070Z,5.17
2022-10-12T02:13:14.391Z,5.07
2022-10-12T02:15:43.160Z,4.00
2022-10-12T02:18:14.603Z,4.57
2022-10-12T02:20:42.850Z,4.73
2022-10-12T02:23:11.163Z,5.00
2022-10-12T02:25:39.517Z,5.37
2022-10-12T02:28:11.519Z,5.50
2022-10-12T02:30:45.378Z,5.77
2022-10-12T02:33:35.284Z,5.70
2022-10-12T02:36:09.180Z,5.20
2022-10-12T02:38:41.265Z,5.33
2022-10-12T02:41:25.079Z,5.43
2022-10-12T02:43:59.709Z,4.90
2022-10-12T02:46:27.247Z,6.23
2022-10-12T02:48:55.832Z,5.50
2022-10-12T02:51:23.751Z,5.00
2022-10-12T02:53:50.850Z,4.63
2022-10-12T02:56:17.655Z,4.87
2022-10-12T02:58:46.324Z,5.17
2022-10-12T03:01:13.658Z,5.30
2022-10-12T03:03:41.353Z,4.83
2022-10-12T03:06:08.367Z,5.50
2022-10-12T03:08:35.444Z,4.63
2022-10-12T03:11:08.020Z,5.33
2022-10-12T03:13:34.763Z,5.40
2022-10-12T03:16:04.048Z,4.70
2022-10-12T03:18:31.397Z,5.17
2022-10-12T03:20:58.471Z,4.70
2022-10-12T03:23:25.236Z,6.13
2022-10-12T03:25:53.352Z,5.47
2022-10-12T03:28:20.430Z,4.63
2022-10-12T03:30:47.456Z,4.97
2022-10-12T03:33:14.190Z,5.00
2022-10-12T03:35:44.783Z,4.83
2022-10-12T03:38:12.579Z,4.20
2022-10-12T03:40:39.617Z,5.27
2022-10-12T03:43:07.058Z,5.30
2022-10-12T03:45:33.868Z,4.77
2022-10-12T03:48:04.668Z,5.73
2022-10-12T03:50:34.757Z,4.53
2022-10-12T03:53:02.810Z,5.03
2022-10-12T03:55:29.637Z,5.03
2022-10-12T03:57:57.774Z,4.83
2022-10-12T04:00:25.995Z,5.03
2022-10-12T04:02:52.797Z,5.03
2022-10-12T04:05:19.489Z,5.17
2022-10-12T04:07:46.342Z,4.00
2022-10-12T04:10:13.063Z,4.80
2022-10-12T04:12:39.849Z,5.07
2022-10-12T04:15:07.112Z,4.83
2022-10-12T04:17:33.929Z,5.13
2022-10-12T04:20:00.680Z,5.10
2022-10-12T04:22:27.567Z,4.83
2022-10-12T04:24:54.308Z,4.43
2022-10-12T04:27:21.230Z,5.40
2022-10-12T04:29:48.724Z,5.27
2022-10-12T04:32:15.478Z,4.77
2022-10-12T04:34:42.207Z,5.33
2022-10-12T04:37:08.912Z,4.10
2022-10-12T04:39:37.970Z,4.80
2022-10-12T04:42:06.874Z,4.73
2022-10-12T04:44:34.003Z,4.90
2022-10-12T04:47:02.225Z,4.80
2022-10-12T04:49:29.123Z,5.50
2022-10-12T04:51:55.919Z,6.13
2022-10-12T04:54:22.670Z,5.20
2022-10-12T04:56:49.495Z,4.97
2022-10-12T04:59:16.414Z,5.20
2022-10-12T05:01:43.285Z,4.43
2022-10-12T05:04:10.193Z,4.27
2022-10-12T05:06:36.958Z,5.23
2022-10-12T05:09:03.947Z,4.67
2022-10-12T05:11:31.959Z,4.97
2022-10-12T05:13:58.824Z,4.90
2022-10-12T05:16:25.887Z,5.63
2022-10-12T05:18:52.669Z,5.67
2022-10-12T05:21:19.359Z,4.60
2022-10-12T05:23:51.448Z,4.90
2022-10-12T05:26:18.623Z,6.20
2022-10-12T05:28:45.653Z,5.00
2022-10-12T05:31:12.501Z,6.10
2022-10-12T05:33:39.218Z,5.50
2022-10-12T05:36:06.496Z,5.17
2022-10-12T05:38:33.330Z,5.23
2022-10-12T05:41:00.989Z,4.77
2022-10-12T05:43:28.590Z,4.87
2022-10-12T05:45:55.457Z,5.37
2022-10-12T05:48:22.238Z,5.50
2022-10-12T05:50:51.701Z,4.80
2022-10-12T05:53:18.415Z,5.30
2022-10-12T05:55:59.498Z,5.33
2022-10-12T05:58:28.452Z,5.27
2022-10-12T06:00:55.600Z,5.23
2022-10-12T06:03:25.910Z,5.57
2022-10-12T06:05:53.408Z,5.13
2022-10-12T06:08:20.224Z,5.50
2022-10-12T06:10:49.907Z,5.07
2022-10-12T06:13:18.000Z,5.17
2022-10-12T06:15:46.185Z,5.00
2022-10-12T06:18:13.955Z,5.00
2022-10-12T06:20:40.776Z,6.73
2022-10-12T06:23:07.500Z,5.23
2022-10-12T06:25:34.245Z,6.57
2022-10-12T06:28:01.412Z,5.60
2022-10-12T06:30:28.116Z,5.57
2022-10-12T06:32:54.891Z,5.40
2022-10-12T06:35:22.069Z,5.73
2022-10-12T06:37:50.669Z,5.67
2022-10-12T06:40:19.237Z,5.97
2022-10-12T06:42:46.545Z,5.60
2022-10-12T06:45:13.284Z,6.37
2022-10-12T06:47:40.077Z,6.20
2022-10-12T06:50:08.084Z,5.77
2022-10-12T06:52:35.461Z,6.43
2022-10-12T06:55:03.041Z,6.73
2022-10-12T06:57:30.130Z,5.90
2022-10-12T06:59:57.171Z,6.03
2022-10-12T07:02:23.890Z,5.93
2022-10-12T07:04:54.127Z,5.77
2022-10-12T07:07:20.932Z,5.80
2022-10-12T07:09:47.698Z,5.93
2022-10-12T07:12:15.450Z,6.30
2022-10-12T07:14:42.152Z,6.37
2022-10-12T07:17:09.530Z,6.87
2022-10-12T07:19:36.275Z,6.47
2022-10-12T07:22:03.428Z,7.67
2022-10-12T07:24:36.341Z,7.17
2022-10-12T07:27:09.905Z,6.03
2022-10-12T07:29:38.137Z,7.10
2022-10-12T07:32:06.585Z,7.00
2022-10-12T07:34:33.713Z,7.43
2022-10-12T07:37:00.866Z,7.70
2022-10-12T07:39:27.891Z,8.10
2022-10-12T07:41:54.964Z,7.43
2022-10-12T07:44:22.746Z,9.33
2022-10-12T07:46:49.832Z,8.27
2022-10-12T07:49:16.996Z,7.40
2022-10-12T07:51:44.407Z,8.23
2022-10-12T07:54:11.135Z,7.53
2022-10-12T07:56:38.835Z,8.03
2022-10-12T07:59:05.617Z,7.30
2022-10-12T08:01:33.163Z,7.90
2022-10-12T08:04:01.984Z,7.37
2022-10-12T08:06:31.614Z,8.10
2022-10-12T08:08:59.673Z,8.37
2022-10-12T08:11:26.750Z,8.33
2022-10-12T08:13:53.628Z,8.30
2022-10-12T08:16:22.013Z,7.83
2022-10-12T08:18:48.923Z,7.20
2022-10-12T08:21:16.940Z,9.50
2022-10-12T08:23:46.667Z,8.67
2022-10-12T08:26:14.690Z,8.77
2022-10-12T08:28:42.047Z,7.30
2022-10-12T08:31:15.115Z,7.00
2022-10-12T08:33:41.920Z,6.57
2022-10-12T08:36:10.445Z,6.30
2022-10-12T08:38:40.725Z,6.10
2022-10-12T08:41:36.428Z,6.03
2022-10-12T08:44:08.423Z,5.97
2022-10-12T08:46:35.363Z,6.40
2022-10-12T08:49:18.857Z,5.83
2022-10-12T08:52:10.054Z,5.87
2022-10-12T08:54:42.064Z,5.00
2022-10-12T08:57:16.553Z,4.90
2022-10-12T08:59:44.304Z,5.17
2022-10-12T09:02:37.161Z,5.03
2022-10-12T09:05:13.154Z,4.17
2022-10-12T09:08:06.138Z,4.43
2022-10-12T09:10:32.834Z,4.37
2022-10-12T09:13:09.815Z,4.27
2022-10-12T09:15:53.753Z,4.73
2022-10-12T09:18:43.512Z,4.33
2022-10-12T09:21:16.910Z,5.27
2022-10-12T09:23:44.411Z,4.20
2022-10-12T09:26:17.653Z,5.23
2022-10-12T09:28:58.141Z,5.03
2022-10-12T09:31:48.361Z,3.40
2022-10-12T09:34:19.032Z,4.83
2022-10-12T09:36:46.587Z,4.03
2022-10-12T09:39:18.704Z,5.17
2022-10-12T09:41:47.451Z,5.53
2022-10-12T09:44:29.276Z,4.63
2022-10-12T09:47:01.191Z,4.60
2022-10-12T09:49:41.225Z,5.00
2022-10-12T09:52:08.922Z,3.53
2022-10-12T09:54:35.838Z,4.00
2022-10-12T09:57:03.179Z,4.10
2022-10-12T09:59:36.532Z,4.40
2022-10-12T10:02:19.436Z,3.97
2022-10-12T10:04:48.533Z,4.13
2022-10-12T10:07:33.300Z,4.23
2022-10-12T10:10:08.124Z,4.10
2022-10-12T10:12:41.637Z,3.63
2022-10-12T10:15:21.804Z,4.20
2022-10-12T10:17:54.749Z,4.93
2022-10-12T10:20:50.945Z,4.57
2022-10-12T10:23:25.874Z,4.97
2022-10-12T10:26:04.680Z,4.53
2022-10-12T10:28:34.387Z,3.70
2022-10-12T10:31:16.112Z,3.67
2022-10-12T10:33:44.028Z,3.60
2022-10-12T10:36:23.268Z,5.13
2022-10-12T10:38:55.904Z,4.67
2022-10-12T10:41:28.853Z,4.27
2022-10-12T10:43:55.671Z,4.37
2022-10-12T10:46:30.529Z,4.10
2022-10-12T10:49:06.159Z,3.87
2022-10-12T10:51:52.035Z,4.00
2022-10-12T10:54:24.583Z,4.03
2022-10-12T10:56:55.405Z,4.00
2022-10-12T10:59:54.449Z,3.73
2022-10-12T11:02:48.852Z,4.17
2022-10-12T11:05:24.984Z,3.53
2022-10-12T11:07:55.909Z,3.90
2022-10-12T11:10:48.226Z,4.10
2022-10-12T11:13:31.555Z,3.53
2022-10-12T11:16:19.295Z,3.17
2022-10-12T11:18:55.427Z,3.93
2022-10-12T11:21:30.808Z,3.83
2022-10-12T11:24:17.803Z,4.13
2022-10-12T11:26:53.453Z,4.00
2022-10-12T11:29:20.402Z,3.30
2022-10-12T11:32:08.086Z,3.40
2022-10-12T11:34:51.499Z,4.13
2022-10-12T11:37:22.506Z,4.03
2022-10-12T11:39:52.297Z,3.67
2022-10-12T11:42:33.042Z,3.40
2022-10-12T11:45:04.901Z,3.43
2022-10-12T11:47:47.372Z,4.33
2022-10-12T11:50:33.172Z,3.50
2022-10-12T11:53:02.453Z,4.97
2022-10-12T11:56:04.826Z,3.63
2022-10-12T11:58:59.827Z,3.30
2022-10-12T12:02:01.075Z,3.00
2022-10-12T12:04:42.073Z,3.00
2022-10-12T12:07:51.165Z,2.60
2022-10-12T12:10:26.599Z,2.93
2022-10-12T12:13:14.806Z,3.17
2022-10-12T12:16:03.258Z,3.10
2022-10-12T12:18:35.246Z,2.57
2022-10-12T12:21:09.148Z,3.03
2022-10-12T12:23:43.370Z,2.77
2022-10-12T12:26:15.719Z,3.23
2022-10-12T12:29:06.513Z,3.13
2022-10-12T12:31:33.519Z,3.20
2022-10-12T12:34:13.768Z,3.40
2022-10-12T12:36:44.952Z,3.37
2022-10-12T12:39:33.940Z,2.83
2022-10-12T12:42:06.498Z,2.97
2022-10-12T12:44:43.372Z,3.40
2022-10-12T12:50:02.541Z,4.60
2022-10-12T12:52:39.327Z,3.47
2022-10-12T12:55:18.131Z,3.50
2022-10-12T12:58:05.703Z,3.20
2022-10-12T13:01:08.046Z,3.53
2022-10-12T13:04:10.199Z,3.23
2022-10-12T13:07:27.306Z,3.07
2022-10-12T13:09:54.034Z,3.10
2022-10-12T13:12:58.647Z,3.27
2022-10-12T13:15:40.319Z,2.77
2022-10-12T13:18:42.267Z,3.40
2022-10-12T13:21:12.824Z,3.20
2022-10-12T13:23:40.352Z,3.40
2022-10-12T13:26:09.864Z,3.57
2022-10-12T13:28:42.527Z,2.73
2022-10-12T13:31:15.494Z,3.20
2022-10-12T13:33:50.426Z,2.87
2022-10-12T13:36:29.372Z,2.83
2022-10-12T13:38:58.412Z,3.17
2022-10-12T13:41:30.334Z,4.23
2022-10-12T13:44:01.195Z,3.50
2022-10-12T13:46:40.067Z,3.47
2022-10-12T13:49:15.279Z,2.93
2022-10-12T13:51:44.459Z,3.73
2022-10-12T13:54:17.086Z,3.80
2022-10-12T13:56:44.925Z,3.17
2022-10-12T13:59:18.790Z,3.87
2022-10-12T14:01:56.440Z,3.60
2022-10-12T14:04:27.083Z,3.60
2022-10-12T14:06:58.743Z,3.87
2022-10-12T14:09:27.347Z,4.20
2022-10-12T14:11:56.174Z,4.40
2022-10-12T14:14:34.888Z,3.50
2022-10-12T14:17:01.945Z,4.07
2022-10-12T14:19:40.654Z,4.93
2022-10-12T14:22:07.906Z,4.10
2022-10-12T14:24:36.116Z,3.53
2022-10-12T14:27:05.085Z,5.10
2022-10-12T14:29:44.393Z,3.43
2022-10-12T14:32:11.096Z,3.67
2022-10-12T14:34:46.501Z,3.77
2022-10-12T14:37:15.983Z,3.50
2022-10-12T14:39:48.672Z,3.27
2022-10-12T14:42:34.223Z,3.30
2022-10-12T14:45:02.889Z,2.90
2022-10-12T14:47:33.040Z,2.63
2022-10-12T14:50:01.382Z,2.87
2022-10-12T14:52:32.055Z,3.40
2022-10-12T14:55:00.399Z,2.80
2022-10-12T14:57:31.446Z,2.40
2022-10-12T14:59:58.982Z,2.90
2022-10-12T15:02:33.168Z,3.43
2022-10-12T15:05:00.159Z,3.30
2022-10-12T15:07:31.011Z,3.77
2022-10-12T15:09:58.262Z,3.40
2022-10-12T15:12:25.911Z,3.00
2022-10-12T15:14:55.610Z,3.00
2022-10-12T15:17:22.525Z,3.47
2022-10-12T15:19:50.575Z,4.40
2022-10-12T15:22:18.950Z,2.97
2022-10-12T15:24:46.219Z,3.00
2022-10-12T15:27:13.500Z,3.50
2022-10-12T15:29:40.521Z,3.23
2022-10-12T15:32:09.742Z,3.27
2022-10-12T15:34:36.492Z,3.10
2022-10-12T15:37:08.882Z,2.70
2022-10-12T15:39:36.268Z,3.30
2022-10-12T15:42:03.150Z,3.37
2022-10-12T15:44:30.598Z,3.07
2022-10-12T15:46:57.439Z,3.23
2022-10-12T15:49:24.449Z,3.17
2022-10-12T15:51:54.184Z,2.90
2022-10-12T15:54:21.131Z,3.13
2022-10-12T15:56:47.978Z,3.63
2022-10-12T15:59:14.846Z,3.77
2022-10-12T16:01:43.403Z,3.20
2022-10-12T16:04:15.630Z,3.00
2022-10-12T16:06:42.965Z,3.80
2022-10-12T16:09:10.201Z,2.43
2022-10-12T16:11:37.083Z,4.03
2022-10-12T16:14:04.064Z,2.67
2022-10-12T16:16:32.082Z,2.90
2022-10-12T16:18:59.242Z,3.00
2022-10-12T16:21:26.303Z,3.37
2022-10-12T16:23:53.424Z,3.50
2022-10-12T16:26:20.262Z,3.03
2022-10-12T16:28:47.130Z,3.97
2022-10-12T16:31:17.941Z,3.90
2022-10-12T16:33:45.583Z,3.33
2022-10-12T16:36:15.267Z,3.40
2022-10-12T16:38:43.046Z,3.50
2022-10-12T16:41:11.373Z,3.33
2022-10-12T16:43:38.190Z,3.97
2022-10-12T16:46:05.601Z,3.17
2022-10-12T16:48:32.769Z,3.43
2022-10-12T16:51:00.274Z,3.03
2022-10-12T16:53:27.243Z,3.20
2022-10-12T16:55:53.988Z,3.37
2022-10-12T16:58:20.755Z,3.13
2022-10-12T17:00:47.778Z,4.30
2022-10-12T17:03:14.718Z,4.33
2022-10-12T17:05:42.491Z,3.87
2022-10-12T17:08:14.751Z,4.20
2022-10-12T17:10:44.967Z,4.20
2022-10-12T17:13:13.655Z,4.13
2022-10-12T17:15:42.093Z,3.70
2022-10-12T17:18:09.482Z,4.13
2022-10-12T17:20:36.617Z,3.80
2022-10-12T17:23:03.635Z,4.30
2022-10-12T17:25:30.476Z,3.87
2022-10-12T17:27:57.256Z,3.80
2022-10-12T17:30:24.000Z,3.77
2022-10-12T17:32:50.870Z,4.37
2022-10-12T17:35:17.747Z,3.57
2022-10-12T17:37:44.456Z,3.90
2022-10-12T17:40:11.562Z,4.00
2022-10-12T17:42:38.836Z,3.80
2022-10-12T17:45:06.229Z,3.97
2022-10-12T17:47:32.971Z,4.17
2022-10-12T17:49:59.809Z,4.40
2022-10-12T17:52:26.583Z,4.47
2022-10-12T17:54:53.331Z,4.20
2022-10-12T17:57:25.927Z,4.13
2022-10-12T18:00:01.425Z,4.37
2022-10-12T18:02:28.363Z,4.03
2022-10-12T18:04:59.754Z,4.47
2022-10-12T18:07:39.903Z,4.33
2022-10-12T18:10:09.637Z,4.73
2022-10-12T18:12:37.685Z,4.07
2022-10-12T18:15:10.817Z,4.27
2022-10-12T18:20:35.630Z,4.50
2022-10-12T18:23:07.526Z,4.83
2022-10-12T18:25:46.764Z,4.87
2022-10-12T18:28:16.488Z,4.40
2022-10-12T18:30:49.977Z,4.73
2022-10-12T18:33:17.668Z,4.43
2022-10-12T18:35:51.584Z,4.73
2022-10-12T18:38:26.036Z,4.50
2022-10-12T18:40:53.560Z,4.17
2022-10-12T18:43:20.303Z,4.23
2022-10-12T18:45:47.035Z,4.97
2022-10-12T18:48:14.036Z,4.27
2022-10-12T18:50:40.795Z,4.87
2022-10-12T18:53:08.176Z,4.93
2022-10-12T18:55:38.312Z,4.70
2022-10-12T18:58:05.482Z,4.53
2022-10-12T19:00:32.605Z,4.80
2022-10-12T19:02:59.588Z,4.83
2022-10-12T19:05:26.830Z,4.90
2022-10-12T19:07:53.600Z,4.77
2022-10-12T19:10:20.445Z,4.37
2022-10-12T19:12:47.230Z,4.40
2022-10-12T19:15:13.986Z,4.13
2022-10-12T19:17:41.605Z,3.97
2022-10-12T19:20:09.005Z,5.03
2022-10-12T19:22:36.071Z,5.10
2022-10-12T19:25:03.653Z,4.60
2022-10-12T19:27:30.419Z,5.07
2022-10-12T19:29:57.683Z,4.40
2022-10-12T19:32:24.438Z,5.03
2022-10-12T19:34:52.146Z,4.20
2022-10-12T19:37:18.917Z,4.87
2022-10-12T19:39:47.166Z,4.77
2022-10-12T19:42:14.098Z,5.23
2022-10-12T19:44:40.953Z,5.20
2022-10-12T19:47:08.043Z,4.80
2022-10-12T19:49:37.331Z,5.47
2022-10-12T19:52:05.415Z,4.70
2022-10-12T19:54:36.043Z,4.90
2022-10-12T19:57:03.084Z,5.43
2022-10-12T19:59:29.891Z,5.43
2022-10-12T20:01:56.668Z,5.17
2022-10-12T20:04:25.614Z,4.83
2022-10-12T20:06:52.556Z,4.63
2022-10-12T20:09:20.129Z,5.03
2022-10-12T20:11:47.033Z,4.43
2022-10-12T20:14:13.875Z,4.33
2022-10-12T20:16:41.366Z,4.30
2022-10-12T20:19:08.203Z,4.10
2022-10-12T20:21:36.646Z,3.90
2022-10-12T20:24:04.092Z,3.77
2022-10-12T20:26:30.916Z,4.10
2022-10-12T20:28:58.209Z,3.60
2022-10-12T20:31:27.596Z,3.60
2022-10-12T20:33:56.000Z,3.53
2022-10-12T20:36:28.459Z,3.50
2022-10-12T20:38:56.519Z,3.13
2022-10-12T20:41:24.545Z,3.43
2022-10-12T20:43:58.811Z,4.13
2022-10-12T20:46:26.807Z,2.80
2022-10-12T20:48:58.636Z,3.70
2022-10-12T20:51:31.629Z,5.60
2022-10-12T20:54:00.585Z,3.73
2022-10-12T20:56:31.849Z,2.90
2022-10-12T20:58:59.511Z,3.73
2022-10-12T21:01:52.120Z,3.10
2022-10-12T21:04:18.940Z,3.30
2022-10-12T21:06:45.635Z,3.77
2022-10-12T21:09:14.575Z,3.83
2022-10-12T21:11:43.631Z,3.57
2022-10-12T21:14:14.266Z,3.63
2022-10-12T21:16:41.278Z,4.07
2022-10-12T21:19:08.407Z,3.30
2022-10-12T21:21:35.275Z,3.47
2022-10-12T21:24:02.116Z,3.83
2022-10-12T21:26:30.757Z,2.90
2022-10-12T21:28:59.780Z,3.70
2022-10-12T21:31:32.024Z,3.30
2022-10-12T21:34:04.714Z,3.83
2022-10-12T21:36:32.606Z,3.27
2022-10-12T21:38:59.373Z,3.07
2022-10-12T21:41:28.684Z,3.50
2022-10-12T21:43:56.317Z,3.90
2022-10-12T21:46:28.413Z,3.60
2022-10-12T21:48:55.578Z,3.10
2022-10-12T21:51:24.022Z,3.60
2022-10-12T21:53:51.505Z,3.73
2022-10-12T21:56:22.881Z,3.13
2022-10-12T21:58:50.607Z,2.90
2022-10-12T22:01:27.030Z,3.43
2022-10-12T22:03:55.302Z,4.07
2022-10-12T22:06:24.005Z,3.63
2022-10-12T22:09:14.878Z,4.07
2022-10-12T22:11:42.111Z,3.47
2022-10-12T22:14:12.186Z,3.47
2022-10-12T22:16:39.618Z,3.73
2022-10-12T22:19:08.507Z,4.27
2022-10-12T22:21:36.497Z,3.60
2022-10-12T22:24:03.829Z,4.47
2022-10-12T22:26:30.866Z,3.67
2022-10-12T22:28:59.287Z,3.53
2022-10-12T22:31:26.495Z,3.90
2022-10-12T22:33:54.742Z,3.80
2022-10-12T22:36:21.466Z,3.97
2022-10-12T22:38:48.237Z,3.77
2022-10-12T22:41:17.542Z,3.83
2022-10-12T22:43:44.483Z,4.07
2022-10-12T22:46:11.320Z,3.57
2022-10-12T22:48:38.161Z,3.80
2022-10-12T22:51:06.580Z,4.93
2022-10-12T22:53:33.801Z,4.00
2022-10-12T22:56:03.520Z,4.57
2022-10-12T22:58:30.774Z,4.13
2022-10-12T23:01:06.593Z,4.47
2022-10-12T23:03:34.192Z,4.67
2022-10-12T23:06:00.995Z,4.40
2022-10-12T23:08:28.382Z,4.00
2022-10-12T23:10:55.562Z,4.97
2022-10-12T23:13:22.444Z,4.00
2022-10-12T23:15:49.187Z,4.63
2022-10-12T23:18:15.927Z,4.67
2022-10-12T23:20:42.777Z,4.57
2022-10-12T23:23:09.543Z,4.03
2022-10-12T23:25:36.763Z,4.30
2022-10-12T23:28:03.633Z,4.87
2022-10-12T23:30:30.461Z,4.93
2022-10-12T23:32:57.736Z,3.43
2022-10-12T23:35:24.522Z,4.60
2022-10-12T23:37:51.249Z,4.30
2022-10-12T23:40:18.770Z,4.80
2022-10-12T23:42:45.654Z,4.97
2022-10-12T23:45:12.463Z,4.43
2022-10-12T23:47:39.304Z,4.77
2022-10-12T23:50:06.523Z,4.60
2022-10-12T23:52:33.289Z,4.57
2022-10-12T23:54:59.987Z,4.10
2022-10-12T23:57:45.567Z,4.87
